createdAt,value
2017-06-05T00:01:40.295Z,14.30
2017-06-05T00:04:13.616Z,15.47
2017-06-05T00:06:46.052Z,17.30
2017-06-05T00:09:18.702Z,16.70
2017-06-05T00:11:50.792Z,18.90
2017-06-05T00:14:23.641Z,19.20
2017-06-05T00:16:55.696Z,21.93
2017-06-05T00:19:28.138Z,18.57
2017-06-05T00:22:01.137Z,18.63
2017-06-05T00:24:32.937Z,16.20
2017-06-05T00:27:05.197Z,18.27
2017-06-05T00:29:37.561Z,19.50
2017-06-05T00:32:10.020Z,19.40
2017-06-05T00:34:42.335Z,19.70
2017-06-05T00:37:14.647Z,18.57
2017-06-05T00:39:46.899Z,19.10
2017-06-05T00:42:19.471Z,22.83
2017-06-05T00:44:51.855Z,17.57
2017-06-05T00:47:24.325Z,18.47
2017-06-05T00:49:56.981Z,16.13
2017-06-05T00:52:29.125Z,16.37
2017-06-05T00:55:01.737Z,14.60
2017-06-05T00:57:34.133Z,13.80
2017-06-05T01:00:06.506Z,14.73
2017-06-05T01:02:38.917Z,15.23
2017-06-05T01:05:11.387Z,15.73
2017-06-05T01:07:43.833Z,17.40
2017-06-05T01:10:16.334Z,18.40
2017-06-05T01:12:48.601Z,20.30
2017-06-05T01:15:21.276Z,18.23
2017-06-05T01:17:53.437Z,18.30
2017-06-05T01:20:25.784Z,17.57
2017-06-05T01:22:58.171Z,19.43
2017-06-05T01:25:30.713Z,18.60
2017-06-05T01:28:03.133Z,14.80
2017-06-05T01:30:35.520Z,18.33
2017-06-05T01:33:08.304Z,17.87
2017-06-05T01:35:40.449Z,18.43
2017-06-05T01:38:13.914Z,16.70
2017-06-05T01:40:46.244Z,16.20
2017-06-05T01:43:18.978Z,14.60
2017-06-05T01:45:51.004Z,14.30
2017-06-05T01:48:23.388Z,15.10
2017-06-05T01:50:55.717Z,14.67
2017-06-05T01:53:28.034Z,13.33
2017-06-05T01:56:00.768Z,14.90
2017-06-05T01:58:32.926Z,14.90
2017-06-05T02:01:05.378Z,14.37
2017-06-05T02:03:37.880Z,14.50
2017-06-05T02:06:10.180Z,15.70
2017-06-05T02:08:42.537Z,16.20
2017-06-05T02:11:15.288Z,16.63
2017-06-05T02:13:47.672Z,13.87
2017-06-05T02:16:19.751Z,23.60
2017-06-05T02:18:52.045Z,16.53
2017-06-05T02:21:25.532Z,17.37
2017-06-05T02:23:57.946Z,13.00
2017-06-05T02:26:30.568Z,13.90
2017-06-05T02:29:02.568Z,13.70
2017-06-05T02:31:34.956Z,12.77
2017-06-05T02:34:07.265Z,12.50
2017-06-05T02:36:40.689Z,11.13
2017-06-05T02:39:13.441Z,12.83
2017-06-05T02:41:45.782Z,12.47
2017-06-05T02:44:18.193Z,17.20
2017-06-05T02:46:50.236Z,13.00
2017-06-05T02:49:22.674Z,14.80
2017-06-05T02:51:55.166Z,16.13
2017-06-05T02:54:27.580Z,15.43
2017-06-05T02:57:00.033Z,16.40
2017-06-05T02:59:33.248Z,21.37
2017-06-05T03:02:05.968Z,18.23
2017-06-05T03:04:38.536Z,14.07
2017-06-05T03:07:11.019Z,13.87
2017-06-05T03:09:43.421Z,11.17
2017-06-05T03:12:15.892Z,13.27
2017-06-05T03:14:48.339Z,12.37
2017-06-05T03:17:20.831Z,13.30
2017-06-05T03:19:53.284Z,12.93
2017-06-05T03:22:25.803Z,16.90
2017-06-05T03:24:58.061Z,12.33
2017-06-05T03:27:30.781Z,18.70
2017-06-05T03:30:03.095Z,11.57
2017-06-05T03:32:35.408Z,15.83
2017-06-05T03:35:07.754Z,11.33
2017-06-05T03:37:40.126Z,10.63
2017-06-05T03:40:12.776Z,10.43
2017-06-05T03:42:44.792Z,10.37
2017-06-05T03:45:17.275Z,10.83
2017-06-05T03:47:49.541Z,13.10
2017-06-05T03:50:22.264Z,10.20
2017-06-05T03:52:54.337Z,10.17
2017-06-05T03:55:27.119Z,12.90
2017-06-05T03:57:59.245Z,13.67
2017-06-05T04:00:31.665Z,10.13
2017-06-05T04:03:04.104Z,10.07
2017-06-05T04:05:36.488Z,8.63
2017-06-05T04:08:09.245Z,8.43
2017-06-05T04:10:41.398Z,10.03
2017-06-05T04:13:14.129Z,8.43
2017-06-05T04:15:46.596Z,8.40
2017-06-05T04:18:18.725Z,7.50
2017-06-05T04:20:51.075Z,6.90
2017-06-05T04:23:23.672Z,6.73
2017-06-05T04:25:56.022Z,7.13
2017-06-05T04:28:28.548Z,6.30
2017-06-05T04:31:00.933Z,5.87
2017-06-05T04:33:33.269Z,9.93
2017-06-05T04:36:05.613Z,7.90
2017-06-05T04:38:38.053Z,7.43
2017-06-05T04:41:10.434Z,6.57
2017-06-05T04:43:43.745Z,5.80
2017-06-05T04:46:16.236Z,7.50
2017-06-05T04:48:48.689Z,6.03
2017-06-05T04:51:21.033Z,5.70
2017-06-05T04:53:53.393Z,5.67
2017-06-05T04:56:25.826Z,7.90
2017-06-05T04:58:58.209Z,5.70
2017-06-05T05:01:30.593Z,6.10
2017-06-05T05:04:03.029Z,6.13
2017-06-05T05:06:35.420Z,6.07
2017-06-05T05:09:07.921Z,6.00
2017-06-05T05:11:40.275Z,6.10
2017-06-05T05:14:12.669Z,5.03
2017-06-05T05:16:45.071Z,5.53
2017-06-05T05:19:24.348Z,7.37
2017-06-05T05:21:56.889Z,5.30
2017-06-05T05:24:29.344Z,8.03
2017-06-05T05:27:01.797Z,8.33
2017-06-05T05:29:34.169Z,4.33
2017-06-05T05:32:07.848Z,7.00
2017-06-05T05:34:40.010Z,4.83
2017-06-05T05:37:12.304Z,7.07
2017-06-05T05:39:44.584Z,4.57
2017-06-05T05:42:16.933Z,4.13
2017-06-05T05:44:49.608Z,4.70
2017-06-05T05:47:21.981Z,4.27
2017-06-05T05:49:54.222Z,6.90
2017-06-05T05:52:26.537Z,6.17
2017-06-05T05:54:59.178Z,4.50
2017-06-05T05:57:31.474Z,5.07
2017-06-05T06:00:03.831Z,5.03
2017-06-05T06:02:36.245Z,3.97
2017-06-05T06:05:09.778Z,6.40
2017-06-05T06:07:42.201Z,3.90
2017-06-05T06:10:14.674Z,11.20
2017-06-05T06:12:47.105Z,3.80
2017-06-05T06:15:19.491Z,4.20
2017-06-05T06:17:51.871Z,6.47
2017-06-05T06:20:24.431Z,7.70
2017-06-05T06:22:57.157Z,4.10
2017-06-05T06:25:29.458Z,9.87
2017-06-05T06:28:01.774Z,3.93
2017-06-05T06:30:34.315Z,4.80
2017-06-05T06:33:06.713Z,3.70
2017-06-05T06:35:39.249Z,4.80
2017-06-05T06:38:11.710Z,2.90
2017-06-05T06:40:44.300Z,4.27
2017-06-05T06:43:16.672Z,2.47
2017-06-05T06:45:49.282Z,3.00
2017-06-05T06:48:21.597Z,4.23
2017-06-05T06:50:54.033Z,4.30
2017-06-05T06:53:26.406Z,5.67
2017-06-05T06:55:58.824Z,5.43
2017-06-05T06:58:31.317Z,5.27
2017-06-05T07:01:03.744Z,5.07
2017-06-05T07:03:36.144Z,3.37
2017-06-05T07:06:08.943Z,2.53
2017-06-05T07:08:41.132Z,5.83
2017-06-05T07:11:13.289Z,4.13
2017-06-05T07:13:45.660Z,2.77
2017-06-05T07:16:18.088Z,2.37
2017-06-05T07:18:50.393Z,2.70
2017-06-05T07:21:22.793Z,1.60
2017-06-05T07:23:55.301Z,2.50
2017-06-05T07:26:28.024Z,4.10
2017-06-05T07:29:00.039Z,3.00
2017-06-05T07:31:32.799Z,2.63
2017-06-05T07:34:04.958Z,2.40
2017-06-05T07:36:37.417Z,1.83
2017-06-05T07:39:09.751Z,2.97
2017-06-05T07:41:42.241Z,2.13
2017-06-05T07:44:14.699Z,3.27
2017-06-05T07:46:47.004Z,2.17
2017-06-05T07:49:19.212Z,2.90
2017-06-05T07:51:51.982Z,5.10
2017-06-05T07:54:24.061Z,1.97
2017-06-05T07:56:56.539Z,2.77
2017-06-05T07:59:28.905Z,4.07
2017-06-05T08:02:01.408Z,4.83
2017-06-05T08:04:33.845Z,3.20
2017-06-05T08:07:06.633Z,4.27
2017-06-05T08:09:38.732Z,4.30
2017-06-05T08:12:11.457Z,2.50
2017-06-05T08:14:43.436Z,4.40
2017-06-05T08:17:15.840Z,3.33
2017-06-05T08:19:48.392Z,2.20
2017-06-05T08:22:21.274Z,3.00
2017-06-05T08:24:53.281Z,3.77
2017-06-05T08:27:25.645Z,3.63
2017-06-05T08:29:58.118Z,3.67
2017-06-05T08:32:30.680Z,6.03
2017-06-05T08:35:03.439Z,1.80
2017-06-05T08:37:35.557Z,3.60
2017-06-05T08:40:08.381Z,1.63
2017-06-05T08:42:40.368Z,2.20
2017-06-05T08:45:12.890Z,3.60
2017-06-05T08:47:45.257Z,1.90
2017-06-05T08:50:17.626Z,1.73
2017-06-05T08:52:49.980Z,3.27
2017-06-05T08:55:22.456Z,5.03
2017-06-05T08:57:55.089Z,4.40
2017-06-05T09:00:27.580Z,1.40
2017-06-05T09:03:00.192Z,3.37
2017-06-05T09:05:32.729Z,2.20
2017-06-05T09:08:05.333Z,2.53
2017-06-05T09:10:38.453Z,2.47
2017-06-05T09:13:11.345Z,3.13
2017-06-05T09:15:43.789Z,2.27
2017-06-05T09:18:16.203Z,1.67
2017-06-05T09:20:48.567Z,3.87
2017-06-05T09:23:21.064Z,2.57
2017-06-05T09:25:53.199Z,1.70
2017-06-05T09:28:25.021Z,2.00
2017-06-05T09:30:57.621Z,2.30
2017-06-05T09:33:30.795Z,3.43
2017-06-05T09:36:02.820Z,1.60
2017-06-05T09:38:35.337Z,1.50
2017-06-05T09:41:07.848Z,2.10
2017-06-05T09:43:40.349Z,2.80
2017-06-05T09:46:13.476Z,2.23
2017-06-05T09:48:46.043Z,2.50
2017-06-05T09:51:18.369Z,2.10
2017-06-05T09:53:50.931Z,2.97
2017-06-05T09:56:23.416Z,2.43
2017-06-05T09:58:56.037Z,1.87
2017-06-05T10:01:28.644Z,2.40
2017-06-05T10:04:00.861Z,1.40
2017-06-05T10:06:33.298Z,2.53
2017-06-05T10:09:05.693Z,3.03
2017-06-05T10:11:38.077Z,1.40
2017-06-05T10:14:10.463Z,1.60
2017-06-05T10:16:42.957Z,1.90
2017-06-05T10:19:15.455Z,1.40
2017-06-05T10:21:47.757Z,3.80
2017-06-05T10:24:20.371Z,1.50
2017-06-05T10:26:52.862Z,3.17
2017-06-05T10:29:25.313Z,2.30
2017-06-05T10:31:57.777Z,2.30
2017-06-05T10:34:30.296Z,1.80
2017-06-05T10:37:09.713Z,2.60
2017-06-05T10:39:42.233Z,2.20
2017-06-05T10:42:14.681Z,12.80
2017-06-05T10:44:47.151Z,21.40
2017-06-05T10:47:19.605Z,2.43
2017-06-05T10:49:51.980Z,3.00
2017-06-05T10:52:24.334Z,1.97
2017-06-05T10:54:56.844Z,9.87
2017-06-05T10:57:29.461Z,2.40
2017-06-05T11:00:01.661Z,4.27
2017-06-05T11:02:34.028Z,1.57
2017-06-05T11:05:06.307Z,4.30
2017-06-05T11:07:38.816Z,1.90
2017-06-05T11:10:11.225Z,3.47
2017-06-05T11:12:43.805Z,2.67
2017-06-05T11:15:16.188Z,5.27
2017-06-05T11:17:48.580Z,4.13
2017-06-05T11:20:20.943Z,2.03
2017-06-05T11:22:53.351Z,2.23
2017-06-05T11:25:25.687Z,2.10
2017-06-05T11:27:58.148Z,2.10
2017-06-05T11:30:30.476Z,2.30
2017-06-05T11:33:03.034Z,4.07
2017-06-05T11:35:35.404Z,2.40
2017-06-05T11:38:08.163Z,2.57
2017-06-05T11:40:40.526Z,2.10
2017-06-05T11:43:13.040Z,2.73
2017-06-05T11:45:45.349Z,2.47
2017-06-05T11:48:17.909Z,4.50
2017-06-05T11:50:50.341Z,1.70
2017-06-05T11:53:22.869Z,5.27
2017-06-05T11:56:05.393Z,3.33
2017-06-05T11:58:37.933Z,2.97
2017-06-05T12:01:10.301Z,1.60
2017-06-05T12:03:42.720Z,3.57
2017-06-05T12:06:15.141Z,3.80
2017-06-05T12:08:47.773Z,2.70
2017-06-05T12:11:20.304Z,3.53
2017-06-05T12:13:52.728Z,3.57
2017-06-05T12:16:25.055Z,1.53
2017-06-05T12:18:57.575Z,3.87
2017-06-05T12:21:30.023Z,2.10
2017-06-05T12:24:02.482Z,3.40
2017-06-05T12:26:35.048Z,2.00
2017-06-05T12:29:07.808Z,3.23
2017-06-05T12:31:39.920Z,1.50
2017-06-05T12:34:12.404Z,3.43
2017-06-05T12:36:44.743Z,2.10
2017-06-05T12:39:17.264Z,1.93
2017-06-05T12:41:50.372Z,3.40
2017-06-05T12:44:23.092Z,2.80
2017-06-05T12:46:55.441Z,3.50
2017-06-05T12:49:27.977Z,3.13
2017-06-05T12:52:01.465Z,2.90
2017-06-05T12:54:33.784Z,2.80
2017-06-05T12:57:09.324Z,3.07
2017-06-05T12:59:41.921Z,5.43
2017-06-05T13:02:14.303Z,4.10
2017-06-05T13:04:46.643Z,1.93
2017-06-05T13:07:19.237Z,2.50
2017-06-05T13:09:51.560Z,2.83
2017-06-05T13:12:23.936Z,1.90
2017-06-05T13:14:56.656Z,2.00
2017-06-05T13:17:29.092Z,3.00
2017-06-05T13:20:01.586Z,3.47
2017-06-05T13:22:34.053Z,2.47
2017-06-05T13:25:06.416Z,2.43
2017-06-05T13:27:38.785Z,1.90
2017-06-05T13:30:11.177Z,2.40
2017-06-05T13:32:43.909Z,3.30
2017-06-05T13:35:16.284Z,3.00
2017-06-05T13:37:48.683Z,3.93
2017-06-05T13:40:21.169Z,4.20
2017-06-05T13:42:53.516Z,3.40
2017-06-05T13:45:26.008Z,2.87
2017-06-05T13:47:58.475Z,3.20
2017-06-05T13:50:30.959Z,5.93
2017-06-05T13:53:03.425Z,2.30
2017-06-05T13:55:36.004Z,1.50
2017-06-05T13:58:08.553Z,3.60
2017-06-05T14:00:41.061Z,1.63
2017-06-05T14:03:13.121Z,3.03
2017-06-05T14:05:45.625Z,4.40
2017-06-05T14:08:18.048Z,3.23
2017-06-05T14:10:50.569Z,2.90
2017-06-05T14:13:23.045Z,2.00
2017-06-05T14:15:55.785Z,2.80
2017-06-05T14:18:28.155Z,3.07
2017-06-05T14:21:00.380Z,4.30
2017-06-05T14:23:32.712Z,3.03
2017-06-05T14:26:05.084Z,3.20
2017-06-05T14:28:37.453Z,3.83
2017-06-05T14:31:09.820Z,3.07
2017-06-05T14:33:42.588Z,2.33
2017-06-05T14:36:14.649Z,2.47
2017-06-05T14:38:47.093Z,3.50
2017-06-05T14:41:19.637Z,2.03
2017-06-05T14:43:51.997Z,4.97
2017-06-05T14:46:24.413Z,2.27
2017-06-05T14:48:56.785Z,2.60
2017-06-05T14:51:29.822Z,2.57
2017-06-05T14:54:01.814Z,3.43
2017-06-05T14:56:34.337Z,2.30
2017-06-05T14:59:07.573Z,2.67
2017-06-05T15:01:41.121Z,2.47
2017-06-05T15:04:13.534Z,5.20
2017-06-05T15:06:46.016Z,2.33
2017-06-05T15:09:18.580Z,8.30
2017-06-05T15:11:50.812Z,1.90
2017-06-05T15:14:23.249Z,2.70
2017-06-05T15:16:55.780Z,3.00
2017-06-05T15:19:28.097Z,2.60
2017-06-05T15:22:00.892Z,3.53
2017-06-05T15:24:33.088Z,2.83
2017-06-05T15:27:05.820Z,5.00
2017-06-05T15:29:38.009Z,2.67
2017-06-05T15:32:10.489Z,2.20
2017-06-05T15:34:42.836Z,2.20
2017-06-05T15:37:15.480Z,2.00
2017-06-05T15:39:48.620Z,2.67
2017-06-05T15:42:21.265Z,2.53
2017-06-05T15:44:53.712Z,2.53
2017-06-05T15:47:26.092Z,2.40
2017-06-05T15:49:58.432Z,2.50
2017-06-05T15:52:31.220Z,2.57
2017-06-05T15:55:03.237Z,2.80
2017-06-05T15:57:35.532Z,2.40
2017-06-05T16:00:08.211Z,2.03
2017-06-05T16:02:40.784Z,1.80
2017-06-05T16:05:12.977Z,2.20
2017-06-05T16:07:45.428Z,2.00
2017-06-05T16:10:17.768Z,2.20
2017-06-05T16:12:50.154Z,2.37
2017-06-05T16:15:22.588Z,3.17
2017-06-05T16:17:55.336Z,1.97
2017-06-05T16:20:27.421Z,2.10
2017-06-05T16:22:59.737Z,3.07
2017-06-05T16:25:32.773Z,4.10
2017-06-05T16:28:05.513Z,2.00
2017-06-05T16:30:37.745Z,2.47
2017-06-05T16:33:10.728Z,2.93
2017-06-05T16:35:42.597Z,3.23
2017-06-05T16:38:15.085Z,2.67
2017-06-05T16:40:47.642Z,2.23
2017-06-05T16:43:20.281Z,3.47
2017-06-05T16:45:52.500Z,1.73
2017-06-05T16:48:25.049Z,2.03
2017-06-05T16:50:57.447Z,1.80
2017-06-05T16:53:29.817Z,1.73
2017-06-05T16:56:02.304Z,1.93
2017-06-05T16:58:34.796Z,1.33
2017-06-05T17:01:07.152Z,3.07
2017-06-05T17:03:39.637Z,1.87
2017-06-05T17:06:11.989Z,1.67
2017-06-05T17:08:45.481Z,2.23
2017-06-05T17:11:17.885Z,2.00
2017-06-05T17:13:50.625Z,3.33
2017-06-05T17:16:22.741Z,1.70
2017-06-05T17:18:55.127Z,2.40
2017-06-05T17:21:27.357Z,1.70
2017-06-05T17:23:59.753Z,1.70
2017-06-05T17:26:32.036Z,1.97
2017-06-05T17:29:04.509Z,2.10
2017-06-05T17:31:36.945Z,3.00
2017-06-05T17:34:09.377Z,2.00
2017-06-05T17:36:41.660Z,1.50
2017-06-05T17:39:14.213Z,1.73
2017-06-05T17:41:46.550Z,1.63
2017-06-05T17:44:18.996Z,2.70
2017-06-05T17:46:51.476Z,3.80
2017-06-05T17:49:23.891Z,2.13
2017-06-05T17:51:56.221Z,2.40
2017-06-05T17:54:28.632Z,1.70
2017-06-05T17:57:01.013Z,1.90
2017-06-05T17:59:33.493Z,1.60
2017-06-05T18:02:05.945Z,1.50
2017-06-05T18:04:38.468Z,3.47
2017-06-05T18:07:10.999Z,3.57
2017-06-05T18:09:43.597Z,1.47
2017-06-05T18:12:16.044Z,3.63
2017-06-05T18:14:48.488Z,1.70
2017-06-05T18:17:20.893Z,1.50
2017-06-05T18:19:53.372Z,2.10
2017-06-05T18:22:25.668Z,2.33
2017-06-05T18:24:58.053Z,1.53
2017-06-05T18:27:30.576Z,1.60
2017-06-05T18:30:02.887Z,1.70
2017-06-05T18:32:35.237Z,1.77
2017-06-05T18:35:07.767Z,1.43
2017-06-05T18:37:40.021Z,1.50
2017-06-05T18:40:12.474Z,2.67
2017-06-05T18:42:44.812Z,3.57
2017-06-05T18:45:17.237Z,1.40
2017-06-05T18:47:49.714Z,2.43
2017-06-05T18:50:22.085Z,2.17
2017-06-05T18:52:54.714Z,1.43
2017-06-05T18:55:27.133Z,1.90
2017-06-05T18:57:59.500Z,1.70
2017-06-05T19:00:31.998Z,2.10
2017-06-05T19:03:04.268Z,3.23
2017-06-05T19:05:36.725Z,2.30
2017-06-05T19:08:09.115Z,2.10
2017-06-05T19:10:42.560Z,2.33
2017-06-05T19:13:15.104Z,2.43
2017-06-05T19:15:47.440Z,2.27
2017-06-05T19:18:19.789Z,3.50
2017-06-05T19:20:52.321Z,1.90
2017-06-05T19:23:24.798Z,6.07
2017-06-05T19:25:57.421Z,3.60
2017-06-05T19:28:30.823Z,2.37
2017-06-05T19:31:03.120Z,2.40
2017-06-05T19:33:35.615Z,1.63
2017-06-05T19:36:08.075Z,2.20
2017-06-05T19:38:40.736Z,2.00
2017-06-05T19:41:12.948Z,2.83
2017-06-05T19:43:45.358Z,2.37
2017-06-05T19:46:17.676Z,2.77
2017-06-05T19:48:51.000Z,3.63
2017-06-05T19:51:23.709Z,2.80
2017-06-05T19:53:56.018Z,5.57
2017-06-05T19:56:28.398Z,2.93
2017-06-05T19:59:00.837Z,2.73
2017-06-05T20:01:33.358Z,2.53
2017-06-05T20:04:05.743Z,3.10
2017-06-05T20:06:38.110Z,2.37
2017-06-05T20:09:10.394Z,3.00
2017-06-05T20:11:42.928Z,2.60
2017-06-05T20:14:16.149Z,2.87
2017-06-05T20:16:48.620Z,2.60
2017-06-05T20:19:21.169Z,2.73
2017-06-05T20:21:53.511Z,2.80
2017-06-05T20:24:25.959Z,3.20
2017-06-05T20:26:58.423Z,2.80
2017-06-05T20:29:31.696Z,3.33
2017-06-05T20:32:04.296Z,2.47
2017-06-05T20:34:36.737Z,3.27
2017-06-05T20:37:09.556Z,3.93
2017-06-05T20:39:41.757Z,5.30
2017-06-05T20:42:14.160Z,4.40
2017-06-05T20:44:46.953Z,4.87
2017-06-05T20:47:19.049Z,2.80
2017-06-05T20:49:51.326Z,3.50
2017-06-05T20:52:23.810Z,2.77
2017-06-05T20:54:56.142Z,3.27
2017-06-05T20:57:28.821Z,3.87
2017-06-05T21:00:00.806Z,2.53
2017-06-05T21:02:33.181Z,2.90
2017-06-05T21:05:05.936Z,3.07
2017-06-05T21:07:38.128Z,3.30
2017-06-05T21:10:10.873Z,3.80
2017-06-05T21:12:42.781Z,3.00
2017-06-05T21:15:15.202Z,2.73
2017-06-05T21:17:47.572Z,3.50
2017-06-05T21:20:20.070Z,3.23
2017-06-05T21:22:53.224Z,3.33
2017-06-05T21:25:26.848Z,3.87
2017-06-05T21:27:59.412Z,2.83
2017-06-05T21:30:31.752Z,3.60
2017-06-05T21:33:04.960Z,3.80
2017-06-05T21:35:37.313Z,3.10
2017-06-05T21:38:09.785Z,3.20
2017-06-05T21:40:42.292Z,3.03
2017-06-05T21:43:14.657Z,3.03
2017-06-05T21:45:47.050Z,2.83
2017-06-05T21:48:19.392Z,3.90
2017-06-05T21:50:51.721Z,3.27
2017-06-05T21:53:24.148Z,4.03
2017-06-05T21:55:56.563Z,9.60
2017-06-05T21:58:28.988Z,3.03
2017-06-05T22:01:01.195Z,3.60
2017-06-05T22:03:33.619Z,3.57
2017-06-05T22:06:05.952Z,3.53
2017-06-05T22:08:38.304Z,4.10
2017-06-05T22:11:10.749Z,3.80
2017-06-05T22:13:43.489Z,4.23
2017-06-05T22:16:15.883Z,4.00
2017-06-05T22:18:47.896Z,4.17
2017-06-05T22:21:20.154Z,4.27
2017-06-05T22:23:52.636Z,3.93
2017-06-05T22:26:25.360Z,4.20
2017-06-05T22:28:57.351Z,5.10
2017-06-05T22:31:29.742Z,4.60
2017-06-05T22:34:02.180Z,4.03
2017-06-05T22:36:34.387Z,4.17
2017-06-05T22:39:06.713Z,4.83
2017-06-05T22:41:38.868Z,4.27
2017-06-05T22:44:11.252Z,4.43
2017-06-05T22:46:43.620Z,4.60
2017-06-05T22:49:16.084Z,6.20
2017-06-05T22:51:48.350Z,5.40
2017-06-05T22:54:20.696Z,4.83
2017-06-05T22:56:53.145Z,5.40
2017-06-05T22:59:25.619Z,5.17
2017-06-05T23:01:57.951Z,5.00
2017-06-05T23:04:30.429Z,5.33
2017-06-05T23:07:02.852Z,5.67
2017-06-05T23:09:35.267Z,5.73
2017-06-05T23:12:07.584Z,5.20
2017-06-05T23:14:40.320Z,7.97
2017-06-05T23:17:12.361Z,6.07
2017-06-05T23:19:44.636Z,5.60
2017-06-05T23:22:17.009Z,7.77
2017-06-05T23:24:49.772Z,5.67
2017-06-05T23:27:21.753Z,8.03
2017-06-05T23:29:55.026Z,5.97
2017-06-05T23:32:27.609Z,6.77
2017-06-05T23:35:00.114Z,7.40
2017-06-05T23:37:32.494Z,7.40
2017-06-05T23:40:04.925Z,6.20
2017-06-05T23:42:38.115Z,6.43
2017-06-05T23:45:10.712Z,9.93
2017-06-05T23:47:43.111Z,8.73
2017-06-05T23:50:15.425Z,6.83
2017-06-05T23:52:48.339Z,7.13
2017-06-05T23:55:20.212Z,6.90
2017-06-05T23:57:52.657Z,7.47
